createdAt,value
2018-07-09T00:02:01.828Z,4.27
2018-07-09T00:04:06.248Z,4.70
2018-07-09T00:06:10.226Z,4.87
2018-07-09T00:08:14.766Z,4.27
2018-07-09T00:11:21.829Z,4.17
2018-07-09T00:13:26.376Z,4.40
2018-07-09T00:15:30.253Z,4.30
2018-07-09T00:17:34.321Z,4.30
2018-07-09T00:19:38.114Z,4.40
2018-07-09T00:21:42.045Z,4.47
2018-07-09T00:23:45.898Z,4.10
2018-07-09T00:25:50.539Z,4.80
2018-07-09T00:27:54.353Z,4.83
2018-07-09T00:29:58.437Z,4.37
2018-07-09T00:32:02.232Z,4.30
2018-07-09T00:34:06.220Z,4.63
2018-07-09T00:36:10.071Z,5.00
2018-07-09T00:38:14.010Z,4.73
2018-07-09T00:40:17.850Z,4.73
2018-07-09T00:42:21.862Z,4.33
2018-07-09T00:44:27.076Z,5.07
2018-07-09T00:46:30.949Z,4.50
2018-07-09T00:48:34.936Z,5.70
2018-07-09T00:50:38.762Z,4.80
2018-07-09T00:52:42.738Z,4.90
2018-07-09T00:54:46.540Z,4.63
2018-07-09T00:56:50.897Z,5.73
2018-07-09T00:58:54.736Z,4.80
2018-07-09T01:00:58.758Z,5.33
2018-07-09T01:03:02.514Z,5.27
2018-07-09T01:05:06.953Z,5.30
2018-07-09T01:07:10.760Z,4.87
2018-07-09T01:09:14.714Z,5.17
2018-07-09T01:11:29.706Z,5.87
2018-07-09T01:13:40.547Z,5.40
2018-07-09T01:15:44.487Z,5.50
2018-07-09T01:17:48.261Z,5.77
2018-07-09T01:19:52.225Z,5.30
2018-07-09T01:21:56.085Z,5.73
2018-07-09T01:24:00.124Z,5.40
2018-07-09T01:26:04.574Z,6.00
2018-07-09T01:28:08.449Z,5.07
2018-07-09T01:30:14.356Z,5.37
2018-07-09T01:32:18.261Z,5.30
2018-07-09T01:34:22.113Z,5.50
2018-07-09T01:36:26.072Z,5.50
2018-07-09T01:38:29.878Z,5.30
2018-07-09T01:40:34.004Z,4.30
2018-07-09T01:42:37.834Z,5.33
2018-07-09T01:44:41.775Z,5.50
2018-07-09T01:46:45.615Z,5.80
2018-07-09T01:48:49.576Z,5.63
2018-07-09T01:50:53.408Z,5.67
2018-07-09T01:52:57.325Z,5.40
2018-07-09T01:55:01.487Z,5.83
2018-07-09T01:57:05.703Z,6.80
2018-07-09T01:59:09.628Z,5.80
2018-07-09T02:01:13.605Z,6.30
2018-07-09T02:03:17.362Z,5.63
2018-07-09T02:05:21.312Z,5.33
2018-07-09T02:07:25.096Z,5.43
2018-07-09T02:09:29.043Z,6.33
2018-07-09T02:11:32.845Z,6.73
2018-07-09T02:13:36.812Z,5.40
2018-07-09T02:15:40.609Z,6.67
2018-07-09T02:17:44.679Z,6.23
2018-07-09T02:19:48.528Z,6.30
2018-07-09T02:21:52.531Z,6.47
2018-07-09T02:23:56.391Z,6.40
2018-07-09T02:26:00.287Z,6.57
2018-07-09T02:28:04.115Z,6.30
2018-07-09T02:30:08.114Z,6.43
2018-07-09T02:32:11.959Z,6.03
2018-07-09T02:34:15.888Z,6.60
2018-07-09T02:36:19.685Z,8.07
2018-07-09T02:38:23.630Z,6.97
2018-07-09T02:40:27.415Z,7.37
2018-07-09T02:42:31.320Z,7.30
2018-07-09T02:44:35.137Z,6.90
2018-07-09T02:46:39.118Z,6.70
2018-07-09T02:48:42.954Z,7.20
2018-07-09T02:50:46.916Z,7.43
2018-07-09T02:52:50.688Z,6.07
2018-07-09T02:54:54.617Z,7.83
2018-07-09T02:56:58.395Z,6.60
2018-07-09T02:59:02.350Z,7.60
2018-07-09T03:01:06.643Z,8.00
2018-07-09T03:03:10.547Z,7.27
2018-07-09T03:05:14.351Z,7.10
2018-07-09T03:07:18.561Z,8.30
2018-07-09T03:09:22.673Z,7.50
2018-07-09T03:11:26.605Z,7.07
2018-07-09T03:13:32.393Z,7.77
2018-07-09T03:15:36.335Z,7.03
2018-07-09T03:17:41.486Z,7.17
2018-07-09T03:19:45.571Z,7.33
2018-07-09T03:21:49.363Z,7.30
2018-07-09T03:23:53.732Z,8.00
2018-07-09T03:25:57.546Z,8.20
2018-07-09T03:28:01.712Z,8.17
2018-07-09T03:30:05.643Z,8.57
2018-07-09T03:32:09.554Z,8.03
2018-07-09T03:34:13.357Z,8.43
2018-07-09T03:36:17.260Z,8.63
2018-07-09T03:38:21.044Z,8.07
2018-07-09T03:40:24.987Z,8.77
2018-07-09T03:42:28.955Z,8.33
2018-07-09T03:44:32.952Z,8.90
2018-07-09T03:46:36.904Z,7.80
2018-07-09T03:48:40.800Z,8.57
2018-07-09T03:50:44.646Z,8.83
2018-07-09T03:52:48.615Z,8.33
2018-07-09T03:54:52.399Z,8.60
2018-07-09T03:56:56.385Z,8.73
2018-07-09T03:59:00.183Z,8.70
2018-07-09T04:01:04.129Z,8.43
2018-07-09T04:03:08.145Z,7.47
2018-07-09T04:05:11.636Z,8.30
2018-07-09T04:07:15.433Z,8.65
2018-07-09T04:09:19.400Z,8.00
2018-07-09T04:11:23.197Z,8.30
2018-07-09T04:13:28.209Z,7.57
2018-07-09T04:15:31.724Z,9.18
2018-07-09T04:17:35.642Z,7.70
2018-07-09T04:19:39.459Z,7.83
2018-07-09T04:21:43.525Z,8.10
2018-07-09T04:24:19.342Z,8.67
2018-07-09T04:26:40.932Z,8.20
2018-07-09T04:28:44.831Z,8.40
2018-07-09T04:30:49.153Z,7.80
2018-07-09T04:32:53.084Z,8.23
2018-07-09T04:34:57.070Z,8.23
2018-07-09T04:37:01.012Z,7.80
2018-07-09T04:39:06.224Z,7.60
2018-07-09T04:41:10.187Z,8.70
2018-07-09T04:43:14.021Z,7.43
2018-07-09T04:45:17.931Z,7.70
2018-07-09T04:47:21.720Z,7.83
2018-07-09T04:49:25.686Z,8.33
2018-07-09T04:51:29.582Z,8.00
2018-07-09T04:53:33.653Z,8.33
2018-07-09T04:55:37.546Z,8.60
2018-07-09T04:57:41.512Z,8.00
2018-07-09T04:59:45.299Z,7.67
2018-07-09T05:01:49.223Z,8.20
2018-07-09T05:03:53.027Z,7.67
2018-07-09T05:05:56.938Z,7.63
2018-07-09T05:08:01.071Z,7.17
2018-07-09T05:10:06.140Z,8.90
2018-07-09T05:12:10.110Z,8.23
2018-07-09T05:14:13.877Z,7.90
2018-07-09T05:16:17.792Z,7.57
2018-07-09T05:18:21.578Z,7.97
2018-07-09T05:20:25.484Z,7.80
2018-07-09T05:22:29.629Z,8.03
2018-07-09T05:24:33.536Z,7.67
2018-07-09T05:26:37.339Z,7.63
2018-07-09T05:28:41.260Z,7.80
2018-07-09T05:30:45.050Z,7.53
2018-07-09T05:32:48.940Z,7.83
2018-07-09T05:34:52.782Z,7.80
2018-07-09T05:36:56.695Z,7.63
2018-07-09T05:39:01.048Z,7.53
2018-07-09T05:41:05.002Z,7.43
2018-07-09T05:43:08.796Z,8.50
2018-07-09T05:45:12.765Z,7.40
2018-07-09T05:47:16.544Z,6.57
2018-07-09T05:49:20.412Z,7.53
2018-07-09T05:51:24.226Z,7.90
2018-07-09T05:53:28.185Z,8.10
2018-07-09T05:55:31.997Z,8.43
2018-07-09T05:57:35.920Z,7.90
2018-07-09T05:59:39.701Z,7.90
2018-07-09T06:01:43.589Z,8.00
2018-07-09T06:03:47.379Z,9.07
2018-07-09T06:05:51.305Z,7.60
2018-07-09T06:07:55.090Z,7.97
2018-07-09T06:09:59.082Z,8.10
2018-07-09T06:12:02.873Z,7.93
2018-07-09T06:14:06.810Z,7.83
2018-07-09T06:16:10.650Z,7.93
2018-07-09T06:18:14.753Z,7.80
2018-07-09T06:20:18.619Z,7.87
2018-07-09T06:22:22.542Z,7.47
2018-07-09T06:24:26.426Z,7.00
2018-07-09T06:26:30.462Z,7.27
2018-07-09T06:28:34.306Z,7.20
2018-07-09T06:30:38.475Z,6.43
2018-07-09T06:32:42.398Z,5.90
2018-07-09T06:34:46.748Z,7.70
2018-07-09T06:36:50.526Z,6.83
2018-07-09T06:38:55.806Z,7.20
2018-07-09T06:40:59.808Z,8.10
2018-07-09T06:43:03.673Z,6.87
2018-07-09T06:45:07.623Z,6.77
2018-07-09T06:47:11.423Z,6.03
2018-07-09T06:49:15.695Z,5.63
2018-07-09T06:51:19.551Z,5.90
2018-07-09T06:53:23.497Z,6.27
2018-07-09T06:55:27.310Z,6.23
2018-07-09T06:57:31.229Z,6.30
2018-07-09T06:59:35.089Z,5.30
2018-07-09T07:01:38.969Z,5.90
2018-07-09T07:03:42.792Z,5.60
2018-07-09T07:05:46.802Z,6.07
2018-07-09T07:07:50.714Z,6.07
2018-07-09T07:09:54.648Z,5.27
2018-07-09T07:12:24.669Z,5.87
2018-07-09T07:14:29.348Z,5.73
2018-07-09T07:16:33.174Z,6.00
2018-07-09T07:18:37.178Z,5.93
2018-07-09T07:20:41.009Z,6.07
2018-07-09T07:22:45.059Z,5.50
2018-07-09T07:24:48.884Z,5.90
2018-07-09T07:26:52.815Z,7.07
2018-07-09T07:28:56.602Z,6.83
2018-07-09T07:31:00.561Z,6.00
2018-07-09T07:33:04.662Z,5.90
2018-07-09T07:35:08.187Z,5.27
2018-07-09T07:37:12.038Z,5.50
2018-07-09T07:39:15.987Z,5.40
2018-07-09T07:41:19.798Z,6.17
2018-07-09T07:43:23.729Z,5.13
2018-07-09T07:45:27.580Z,5.97
2018-07-09T07:47:31.598Z,5.53
2018-07-09T07:49:35.468Z,5.40
2018-07-09T07:51:39.515Z,5.47
2018-07-09T07:53:43.373Z,5.67
2018-07-09T07:55:47.346Z,6.40
2018-07-09T07:57:51.180Z,5.93
2018-07-09T07:59:55.130Z,5.83
2018-07-09T08:01:58.904Z,5.23
2018-07-09T08:04:02.811Z,5.80
2018-07-09T08:06:08.460Z,5.30
2018-07-09T08:08:12.373Z,5.00
2018-07-09T08:10:16.226Z,5.43
2018-07-09T08:14:24.068Z,4.13
2018-07-09T08:16:27.976Z,4.23
2018-07-09T08:18:31.781Z,4.60
2018-07-09T08:20:35.708Z,4.40
2018-07-09T08:22:39.492Z,4.03
2018-07-09T08:24:43.414Z,4.20
2018-07-09T08:26:47.209Z,4.40
2018-07-09T08:28:51.149Z,3.73
2018-07-09T08:30:54.969Z,4.47
2018-07-09T08:32:58.903Z,4.10
2018-07-09T08:35:02.673Z,4.50
2018-07-09T08:37:06.621Z,3.93
2018-07-09T08:39:10.457Z,4.07
2018-07-09T08:41:14.417Z,4.10
2018-07-09T08:43:18.255Z,3.87
2018-07-09T08:45:22.377Z,4.80
2018-07-09T08:47:26.229Z,4.27
2018-07-09T08:49:30.139Z,3.70
2018-07-09T08:51:34.006Z,3.93
2018-07-09T08:53:38.014Z,4.23
2018-07-09T08:55:41.807Z,3.50
2018-07-09T08:57:45.680Z,3.07
2018-07-09T08:59:49.469Z,3.43
2018-07-09T09:01:53.385Z,3.60
2018-07-09T09:03:57.252Z,2.97
2018-07-09T09:06:01.115Z,3.30
2018-07-09T09:08:04.992Z,3.60
2018-07-09T09:10:08.941Z,3.63
2018-07-09T09:12:12.763Z,3.80
2018-07-09T09:14:16.729Z,2.93
2018-07-09T09:16:20.544Z,2.53
2018-07-09T09:18:24.468Z,3.40
2018-07-09T09:20:28.281Z,2.97
2018-07-09T09:22:32.226Z,2.97
2018-07-09T09:24:36.338Z,2.77
2018-07-09T09:26:40.248Z,2.50
2018-07-09T09:28:44.027Z,2.93
2018-07-09T09:30:48.023Z,2.77
2018-07-09T09:32:52.017Z,2.70
2018-07-09T09:34:56.038Z,3.00
2018-07-09T09:36:59.892Z,2.80
2018-07-09T09:39:05.505Z,2.70
2018-07-09T09:41:09.460Z,3.20
2018-07-09T09:43:13.023Z,3.03
2018-07-09T09:45:16.896Z,2.90
2018-07-09T09:47:20.751Z,2.97
2018-07-09T09:49:24.640Z,3.10
2018-07-09T09:51:28.486Z,2.80
2018-07-09T09:53:32.395Z,3.70
2018-07-09T09:55:36.729Z,2.90
2018-07-09T09:57:42.345Z,3.23
2018-07-09T09:59:46.229Z,4.17
2018-07-09T10:01:50.038Z,2.73
2018-07-09T10:03:53.970Z,2.77
2018-07-09T10:05:57.880Z,3.17
2018-07-09T10:08:01.833Z,2.90
2018-07-09T10:10:05.719Z,3.30
2018-07-09T10:12:09.690Z,2.70
2018-07-09T10:14:13.462Z,2.70
2018-07-09T10:16:18.460Z,2.70
2018-07-09T10:18:22.326Z,3.10
2018-07-09T10:20:26.308Z,2.80
2018-07-09T10:22:30.268Z,2.97
2018-07-09T10:24:34.167Z,2.80
2018-07-09T10:26:38.048Z,3.03
2018-07-09T10:28:42.070Z,3.37
2018-07-09T10:30:45.850Z,2.30
2018-07-09T10:32:49.757Z,3.00
2018-07-09T10:34:53.604Z,3.00
2018-07-09T10:36:57.540Z,3.20
2018-07-09T10:39:01.316Z,3.50
2018-07-09T10:41:05.279Z,3.20
2018-07-09T10:43:09.188Z,3.07
2018-07-09T10:45:12.683Z,2.70
2018-07-09T10:47:16.494Z,2.67
2018-07-09T10:49:20.383Z,2.53
2018-07-09T10:51:24.214Z,2.53
2018-07-09T10:53:28.149Z,3.03
2018-07-09T10:55:31.964Z,2.70
2018-07-09T10:57:35.946Z,2.43
2018-07-09T10:59:39.796Z,2.30
2018-07-09T11:01:43.814Z,2.63
2018-07-09T11:03:47.622Z,2.30
2018-07-09T11:05:51.505Z,2.10
2018-07-09T11:07:55.269Z,2.40
2018-07-09T11:09:59.229Z,2.03
2018-07-09T11:12:02.645Z,2.20
2018-07-09T11:14:06.568Z,2.60
2018-07-09T11:16:10.415Z,2.30
2018-07-09T11:18:14.410Z,2.40
2018-07-09T11:20:18.215Z,2.10
2018-07-09T11:22:22.158Z,2.97
2018-07-09T11:24:25.948Z,2.63
2018-07-09T11:26:29.931Z,2.10
2018-07-09T11:28:33.767Z,2.40
2018-07-09T11:30:37.726Z,1.90
2018-07-09T11:32:41.518Z,2.23
2018-07-09T11:34:45.465Z,2.20
2018-07-09T11:36:49.250Z,2.50
2018-07-09T11:38:53.120Z,2.70
2018-07-09T11:40:57.054Z,2.70
2018-07-09T11:43:00.968Z,2.50
2018-07-09T11:45:04.815Z,2.40
2018-07-09T11:47:08.781Z,2.40
2018-07-09T11:49:12.965Z,2.20
2018-07-09T11:51:16.900Z,2.33
2018-07-09T11:53:20.689Z,2.10
2018-07-09T11:55:24.599Z,2.33
2018-07-09T11:57:28.396Z,1.73
2018-07-09T11:59:32.312Z,2.30
2018-07-09T12:01:36.186Z,1.90
2018-07-09T12:03:40.111Z,2.07
2018-07-09T12:05:47.186Z,2.20
2018-07-09T12:07:51.630Z,2.10
2018-07-09T12:09:55.439Z,2.03
2018-07-09T12:12:00.316Z,2.20
2018-07-09T12:14:04.148Z,1.92
2018-07-09T12:16:08.060Z,2.13
2018-07-09T12:18:11.898Z,2.20
2018-07-09T12:20:15.846Z,2.00
2018-07-09T12:22:19.720Z,3.00
2018-07-09T12:24:23.702Z,2.10
2018-07-09T12:26:27.520Z,1.70
2018-07-09T12:28:31.571Z,2.27
2018-07-09T12:30:35.423Z,2.90
2018-07-09T12:32:39.387Z,2.90
2018-07-09T12:34:43.302Z,2.43
2018-07-09T12:36:47.369Z,2.60
2018-07-09T12:38:51.173Z,2.13
2018-07-09T12:40:55.163Z,2.37
2018-07-09T12:42:59.104Z,2.87
2018-07-09T12:45:02.978Z,2.57
2018-07-09T12:47:06.852Z,2.20
2018-07-09T12:49:10.845Z,2.27
2018-07-09T12:51:14.694Z,2.63
2018-07-09T12:53:18.589Z,2.33
2018-07-09T12:55:22.439Z,3.50
2018-07-09T12:57:26.333Z,2.70
2018-07-09T12:59:30.203Z,2.40
2018-07-09T13:01:34.156Z,2.40
2018-07-09T13:03:37.922Z,2.53
2018-07-09T13:05:42.932Z,2.03
2018-07-09T13:07:46.838Z,2.50
2018-07-09T13:09:50.773Z,2.10
2018-07-09T13:11:54.591Z,2.73
2018-07-09T13:13:58.529Z,2.80
2018-07-09T13:16:02.336Z,2.80
2018-07-09T13:18:06.320Z,2.50
2018-07-09T13:20:10.162Z,2.50
2018-07-09T13:22:14.070Z,2.50
2018-07-09T13:24:17.868Z,2.43
2018-07-09T13:26:21.877Z,2.60
2018-07-09T13:28:25.690Z,2.50
2018-07-09T13:30:29.625Z,3.20
2018-07-09T13:32:33.910Z,2.70
2018-07-09T13:34:37.873Z,2.53
2018-07-09T13:36:41.767Z,2.10
2018-07-09T13:38:45.670Z,2.63
2018-07-09T13:40:49.579Z,2.97
2018-07-09T13:42:53.487Z,3.07
2018-07-09T13:44:57.372Z,2.30
2018-07-09T13:47:01.345Z,2.60
2018-07-09T13:49:05.280Z,3.10
2018-07-09T13:51:09.257Z,2.50
2018-07-09T13:53:13.129Z,2.13
2018-07-09T13:55:17.016Z,2.00
2018-07-09T13:57:20.874Z,2.07
2018-07-09T13:59:24.872Z,2.20
2018-07-09T14:01:28.682Z,2.43
2018-07-09T14:03:32.581Z,2.50
2018-07-09T14:05:36.409Z,2.47
2018-07-09T14:07:40.515Z,2.20
2018-07-09T14:09:57.713Z,2.20
2018-07-09T14:12:01.641Z,2.73
2018-07-09T14:14:05.779Z,2.50
2018-07-09T14:16:09.694Z,2.60
2018-07-09T14:18:13.510Z,2.00
2018-07-09T14:20:34.710Z,2.30
2018-07-09T14:22:38.887Z,1.93
2018-07-09T14:24:42.791Z,2.57
2018-07-09T14:26:46.889Z,1.93
2018-07-09T14:28:50.686Z,2.23
2018-07-09T14:30:54.708Z,2.10
2018-07-09T14:32:58.670Z,2.20
2018-07-09T14:35:02.627Z,2.17
2018-07-09T14:37:06.482Z,2.07
2018-07-09T14:39:10.347Z,2.00
2018-07-09T14:41:14.190Z,2.40
2018-07-09T14:43:17.684Z,2.23
2018-07-09T14:45:21.478Z,2.45
2018-07-09T14:47:25.456Z,2.30
2018-07-09T14:49:29.234Z,1.93
2018-07-09T14:51:33.169Z,2.00
2018-07-09T14:53:36.964Z,1.97
2018-07-09T14:55:40.878Z,2.17
2018-07-09T14:57:44.712Z,1.97
2018-07-09T14:59:48.625Z,1.80
2018-07-09T15:01:52.456Z,1.90
2018-07-09T15:03:56.336Z,2.27
2018-07-09T15:06:00.151Z,2.20
2018-07-09T15:08:04.123Z,1.90
2018-07-09T15:10:07.908Z,2.67
2018-07-09T15:12:11.892Z,2.33
2018-07-09T15:14:15.726Z,2.50
2018-07-09T15:16:21.059Z,2.60
2018-07-09T15:18:24.996Z,2.40
2018-07-09T15:20:28.527Z,2.23
2018-07-09T15:22:32.500Z,2.37
2018-07-09T15:24:36.367Z,2.20
2018-07-09T15:26:40.359Z,2.30
2018-07-09T15:28:44.221Z,2.03
2018-07-09T15:30:48.156Z,2.10
2018-07-09T15:32:51.995Z,1.57
2018-07-09T15:34:56.003Z,1.93
2018-07-09T15:36:59.794Z,1.90
2018-07-09T15:39:03.906Z,1.93
2018-07-09T15:41:07.730Z,1.57
2018-07-09T15:43:11.808Z,1.63
2018-07-09T15:45:15.631Z,2.40
2018-07-09T15:47:19.859Z,2.80
2018-07-09T15:49:24.069Z,2.63
2018-07-09T15:51:30.847Z,1.87
2018-07-09T15:53:35.196Z,1.93
2018-07-09T15:55:39.662Z,1.90
2018-07-09T15:57:43.888Z,1.63
2018-07-09T15:59:48.025Z,1.67
2018-07-09T16:01:52.256Z,2.13
2018-07-09T16:03:56.193Z,2.10
2018-07-09T16:06:00.299Z,1.90
2018-07-09T16:08:04.492Z,1.60
2018-07-09T16:10:08.869Z,1.60
2018-07-09T16:12:13.010Z,1.70
2018-07-09T16:14:17.145Z,1.70
2018-07-09T16:16:21.766Z,1.90
2018-07-09T16:18:25.956Z,1.93
2018-07-09T16:20:30.183Z,1.67
2018-07-09T16:22:34.564Z,3.10
2018-07-09T16:24:38.600Z,2.00
2018-07-09T16:26:42.722Z,2.10
2018-07-09T16:28:47.133Z,2.40
2018-07-09T16:30:51.524Z,2.70
2018-07-09T16:32:55.656Z,2.40
2018-07-09T16:34:59.911Z,2.37
2018-07-09T16:37:03.751Z,2.73
2018-07-09T16:39:08.084Z,1.90
2018-07-09T16:41:12.012Z,1.60
2018-07-09T16:43:15.993Z,1.93
2018-07-09T16:45:19.791Z,1.60
2018-07-09T16:47:23.823Z,1.93
2018-07-09T16:49:27.944Z,2.03
2018-07-09T16:51:32.045Z,1.90
2018-07-09T16:53:35.919Z,1.57
2018-07-09T16:55:39.860Z,2.17
2018-07-09T16:57:43.708Z,2.00
2018-07-09T16:59:47.629Z,2.33
2018-07-09T17:01:51.514Z,2.27
2018-07-09T17:03:55.485Z,2.60
2018-07-09T17:05:59.289Z,1.87
2018-07-09T17:08:03.229Z,1.80
2018-07-09T17:10:07.080Z,2.70
2018-07-09T17:12:11.739Z,3.93
2018-07-09T17:14:15.701Z,2.08
2018-07-09T17:16:19.612Z,2.00
2018-07-09T17:18:23.445Z,3.00
2018-07-09T17:20:27.412Z,2.40
2018-07-09T17:22:31.292Z,2.43
2018-07-09T17:24:35.210Z,2.13
2018-07-09T17:26:39.155Z,1.83
2018-07-09T17:28:42.999Z,2.17
2018-07-09T17:30:46.941Z,2.20
2018-07-09T17:32:50.956Z,2.40
2018-07-09T17:34:54.761Z,2.10
2018-07-09T17:36:58.701Z,2.30
2018-07-09T17:39:02.539Z,2.10
2018-07-09T17:41:06.669Z,2.30
2018-07-09T17:43:10.519Z,2.07
2018-07-09T17:45:14.456Z,2.30
2018-07-09T17:47:18.009Z,2.20
2018-07-09T17:49:21.942Z,2.20
2018-07-09T17:51:25.780Z,2.40
2018-07-09T17:53:29.760Z,2.40
2018-07-09T17:55:33.564Z,2.47
2018-07-09T17:57:37.558Z,2.30
2018-07-09T17:59:41.468Z,2.53
2018-07-09T18:01:45.417Z,2.27
2018-07-09T18:03:49.538Z,2.17
2018-07-09T18:05:53.508Z,2.33
2018-07-09T18:07:58.152Z,2.40
2018-07-09T18:10:02.083Z,2.20
2018-07-09T18:12:06.108Z,2.40
2018-07-09T18:14:10.352Z,2.50
2018-07-09T18:16:14.260Z,2.50
2018-07-09T18:18:18.787Z,2.80
2018-07-09T18:20:22.889Z,2.50
2018-07-09T18:22:26.892Z,2.30
2018-07-09T18:24:30.745Z,2.63
2018-07-09T18:26:34.759Z,2.90
2018-07-09T18:28:39.883Z,2.93
2018-07-09T18:30:44.070Z,2.80
2018-07-09T18:32:47.965Z,3.50
2018-07-09T18:34:51.977Z,3.13
2018-07-09T18:36:55.870Z,3.70
2018-07-09T18:38:59.935Z,3.10
2018-07-09T18:41:03.813Z,3.77
2018-07-09T18:43:07.777Z,3.50
2018-07-09T18:45:11.728Z,3.23
2018-07-09T18:47:15.952Z,3.57
2018-07-09T18:49:19.914Z,2.90
2018-07-09T18:51:23.899Z,3.43
2018-07-09T18:53:27.878Z,2.80
2018-07-09T18:55:31.856Z,3.03
2018-07-09T18:57:35.741Z,3.10
2018-07-09T18:59:41.350Z,3.20
2018-07-09T19:01:45.667Z,2.87
2018-07-09T19:03:49.522Z,3.17
2018-07-09T19:06:36.908Z,3.20
2018-07-09T19:08:40.826Z,3.20
2018-07-09T19:10:44.900Z,3.63
2018-07-09T19:12:48.912Z,3.30
2018-07-09T19:14:53.285Z,2.73
2018-07-09T19:18:12.382Z,3.23
2018-07-09T19:21:46.743Z,3.37
2018-07-09T19:23:49.443Z,3.10
2018-07-09T19:25:51.926Z,3.37
2018-07-09T19:27:54.815Z,3.30
2018-07-09T19:29:57.475Z,3.97
2018-07-09T19:32:00.158Z,3.30
2018-07-09T19:34:02.721Z,3.85
2018-07-09T19:36:05.752Z,3.20
2018-07-09T19:38:08.269Z,3.23
2018-07-09T19:40:10.868Z,3.57
2018-07-09T19:42:13.405Z,2.80
2018-07-09T19:44:16.016Z,3.40
2018-07-09T19:46:18.550Z,3.27
2018-07-09T19:48:21.196Z,3.50
2018-07-09T19:50:23.801Z,3.58
2018-07-09T19:52:26.887Z,3.50
2018-07-09T19:54:29.384Z,3.47
2018-07-09T19:56:32.036Z,3.33
2018-07-09T19:58:35.810Z,3.65
2018-07-09T20:00:39.142Z,3.30
2018-07-09T20:02:41.704Z,3.30
2018-07-09T20:04:44.812Z,3.47
2018-07-09T20:06:47.631Z,3.27
2018-07-09T20:08:55.685Z,2.87
2018-07-09T20:11:03.571Z,3.53
2018-07-09T20:13:11.370Z,3.13
2018-07-09T20:15:19.304Z,3.30
2018-07-09T20:17:27.919Z,3.07
2018-07-09T20:19:30.626Z,3.03
2018-07-09T20:21:33.255Z,2.90
2018-07-09T20:23:36.081Z,3.03
2018-07-09T20:25:38.807Z,3.23
2018-07-09T20:27:41.620Z,3.33
2018-07-09T20:29:44.287Z,2.83
2018-07-09T20:31:46.988Z,3.50
2018-07-09T20:33:49.611Z,3.25
2018-07-09T20:35:52.361Z,3.00
2018-07-09T20:37:54.945Z,3.45
2018-07-09T20:39:57.924Z,3.70
2018-07-09T20:42:00.670Z,3.20
2018-07-09T20:44:03.966Z,2.63
2018-07-09T20:46:06.690Z,3.33
2018-07-09T20:48:09.639Z,2.63
2018-07-09T20:50:12.583Z,2.93
2018-07-09T20:52:15.605Z,2.73
2018-07-09T20:54:18.492Z,2.80
2018-07-09T20:56:21.208Z,2.70
2018-07-09T20:58:24.226Z,2.37
2018-07-09T21:00:26.993Z,3.00
2018-07-09T21:02:29.511Z,2.83
2018-07-09T21:04:32.695Z,2.80
2018-07-09T21:06:35.335Z,3.47
2018-07-09T21:08:38.039Z,2.70
2018-07-09T21:10:40.621Z,2.70
2018-07-09T21:12:59.025Z,2.57
2018-07-09T21:15:01.901Z,2.30
2018-07-09T21:17:04.337Z,2.95
2018-07-09T21:19:07.357Z,2.60
2018-07-09T21:21:10.114Z,2.60
2018-07-09T21:23:12.963Z,2.70
2018-07-09T21:25:16.513Z,2.60
2018-07-09T21:27:19.222Z,2.70
2018-07-09T21:29:21.824Z,2.85
2018-07-09T21:31:24.544Z,2.83
2018-07-09T21:33:27.145Z,2.87
2018-07-09T21:35:30.060Z,2.80
2018-07-09T21:37:32.671Z,2.80
2018-07-09T21:39:35.416Z,2.63
2018-07-09T21:41:38.123Z,2.37
2018-07-09T21:43:41.102Z,1.93
2018-07-09T21:45:43.813Z,2.37
2018-07-09T21:47:46.575Z,2.27
2018-07-09T21:49:49.306Z,2.12
2018-07-09T21:51:52.340Z,2.40
2018-07-09T21:53:54.901Z,2.00
2018-07-09T21:55:57.681Z,2.77
2018-07-09T21:58:00.200Z,2.37
2018-07-09T22:00:02.853Z,1.93
2018-07-09T22:02:05.471Z,2.40
2018-07-09T22:04:08.281Z,2.17
2018-07-09T22:06:10.820Z,1.93
2018-07-09T22:08:13.607Z,2.80
2018-07-09T22:10:16.310Z,2.47
2018-07-09T22:12:19.130Z,2.60
2018-07-09T22:14:21.778Z,1.90
2018-07-09T22:16:24.559Z,2.43
2018-07-09T22:18:27.261Z,2.37
2018-07-09T22:20:31.339Z,2.23
2018-07-09T22:22:34.587Z,2.30
2018-07-09T22:24:37.275Z,2.07
2018-07-09T22:26:39.844Z,2.10
2018-07-09T22:28:42.487Z,2.13
2018-07-09T22:30:46.734Z,1.80
2018-07-09T22:32:50.970Z,2.50
2018-07-09T22:34:55.285Z,2.20
2018-07-09T22:36:59.532Z,2.57
2018-07-09T22:39:03.783Z,2.77
2018-07-09T22:41:08.016Z,2.13
2018-07-09T22:43:23.167Z,2.13
2018-07-09T22:45:27.267Z,2.20
2018-07-09T22:47:31.414Z,1.90
2018-07-09T22:49:35.688Z,2.43
2018-07-09T22:51:39.712Z,2.13
2018-07-09T22:53:43.791Z,2.10
2018-07-09T22:55:58.896Z,2.17
2018-07-09T22:58:02.972Z,1.97
2018-07-09T23:00:07.005Z,2.13
2018-07-09T23:02:11.406Z,1.80
2018-07-09T23:04:15.419Z,1.75
2018-07-09T23:06:19.502Z,1.47
2018-07-09T23:08:23.644Z,1.87
2018-07-09T23:13:47.775Z,1.50
2018-07-09T23:16:19.038Z,1.30
2018-07-09T23:19:06.478Z,1.73
2018-07-09T23:21:48.161Z,2.00
2018-07-09T23:23:50.862Z,1.37
2018-07-09T23:25:53.492Z,1.62
2018-07-09T23:27:56.202Z,1.50
2018-07-09T23:29:58.913Z,1.60
2018-07-09T23:32:01.627Z,1.47
2018-07-09T23:34:04.149Z,1.92
2018-07-09T23:36:06.838Z,1.40
2018-07-09T23:38:09.393Z,1.85
2018-07-09T23:40:12.305Z,1.50
2018-07-09T23:42:14.952Z,1.50
2018-07-09T23:44:17.656Z,1.63
2018-07-09T23:46:20.261Z,1.50
2018-07-09T23:48:23.116Z,1.57
2018-07-09T23:50:25.807Z,1.60
2018-07-09T23:52:28.580Z,1.60
2018-07-09T23:54:31.127Z,2.12
2018-07-09T23:58:54.331Z,1.43
